createdAt,value
2022-09-10T00:01:59.509Z,13.86
2022-09-10T00:04:27.660Z,13.88
2022-09-10T00:06:55.582Z,13.85
2022-09-10T00:09:22.815Z,13.88
2022-09-10T00:11:49.718Z,13.91
2022-09-10T00:14:21.271Z,13.94
2022-09-10T00:16:48.541Z,13.96
2022-09-10T00:19:15.804Z,13.99
2022-09-10T00:21:44.415Z,13.99
2022-09-10T00:24:11.617Z,14.01
2022-09-10T00:26:39.477Z,13.97
2022-09-10T00:29:09.486Z,13.90
2022-09-10T00:31:37.003Z,13.90
2022-09-10T00:34:05.954Z,13.89
2022-09-10T00:36:37.010Z,13.84
2022-09-10T00:39:06.714Z,13.82
2022-09-10T00:41:35.212Z,13.77
2022-09-10T00:44:06.001Z,13.79
2022-09-10T00:46:50.167Z,13.83
2022-09-10T00:49:22.989Z,13.81
2022-09-10T00:51:53.551Z,13.89
2022-09-10T00:54:23.898Z,13.90
2022-09-10T00:56:53.499Z,13.91
2022-09-10T00:59:23.739Z,13.92
2022-09-10T01:01:50.538Z,13.94
2022-09-10T01:04:17.257Z,13.95
2022-09-10T01:06:45.772Z,13.88
2022-09-10T01:09:14.175Z,13.80
2022-09-10T01:11:56.131Z,13.67
2022-09-10T01:14:46.186Z,13.59
2022-09-10T01:17:45.010Z,13.56
2022-09-10T01:20:12.566Z,13.60
2022-09-10T01:22:54.651Z,13.65
2022-09-10T01:25:49.223Z,13.64
2022-09-10T01:28:25.114Z,13.66
2022-09-10T01:30:57.896Z,13.61
2022-09-10T01:33:34.560Z,13.63
2022-09-10T01:36:09.668Z,13.62
2022-09-10T01:38:38.810Z,13.56
2022-09-10T01:41:06.005Z,13.47
2022-09-10T01:43:33.807Z,13.43
2022-09-10T01:46:31.015Z,13.39
2022-09-10T01:49:07.960Z,13.38
2022-09-10T01:52:12.669Z,13.46
2022-09-10T01:55:06.110Z,13.39
2022-09-10T01:57:48.705Z,13.28
2022-09-10T02:00:18.039Z,13.25
2022-09-10T02:03:04.329Z,13.27
2022-09-10T02:05:35.329Z,13.28
2022-09-10T02:08:07.758Z,13.37
2022-09-10T02:10:34.967Z,13.40
2022-09-10T02:13:01.731Z,13.33
2022-09-10T02:15:29.626Z,13.37
2022-09-10T02:17:57.095Z,13.28
2022-09-10T02:20:27.671Z,13.26
2022-09-10T02:22:58.677Z,13.28
2022-09-10T02:25:31.291Z,13.23
2022-09-10T02:28:04.416Z,13.19
2022-09-10T02:30:31.082Z,13.15
2022-09-10T02:32:58.158Z,13.14
2022-09-10T02:35:24.736Z,13.13
2022-09-10T02:37:51.308Z,13.14
2022-09-10T02:40:19.459Z,13.19
2022-09-10T02:42:46.875Z,13.21
2022-09-10T02:45:14.636Z,13.20
2022-09-10T02:47:41.723Z,13.19
2022-09-10T02:50:08.822Z,13.21
2022-09-10T02:52:35.685Z,13.14
2022-09-10T02:55:02.268Z,13.10
2022-09-10T02:57:28.909Z,13.12
2022-09-10T02:59:56.511Z,13.10
2022-09-10T03:02:23.553Z,13.11
2022-09-10T03:04:50.130Z,13.07
2022-09-10T03:07:20.034Z,13.05
2022-09-10T03:09:47.320Z,13.02
2022-09-10T03:12:15.834Z,13.10
2022-09-10T03:14:43.593Z,13.04
2022-09-10T03:17:10.335Z,13.01
2022-09-10T03:19:37.057Z,12.99
2022-09-10T03:22:03.754Z,12.94
2022-09-10T03:24:30.470Z,12.93
2022-09-10T03:26:57.209Z,12.93
2022-09-10T03:29:24.472Z,12.98
2022-09-10T03:31:51.792Z,12.95
2022-09-10T03:34:18.996Z,13.01
2022-09-10T03:36:47.380Z,12.95
2022-09-10T03:39:16.169Z,13.00
2022-09-10T03:41:42.754Z,12.94
2022-09-10T03:44:10.270Z,12.95
2022-09-10T03:46:38.116Z,12.95
2022-09-10T03:49:06.160Z,12.97
2022-09-10T03:51:34.094Z,13.06
2022-09-10T03:54:01.166Z,13.01
2022-09-10T03:56:28.064Z,12.80
2022-09-10T03:58:54.631Z,12.82
2022-09-10T04:01:21.270Z,12.78
2022-09-10T04:03:47.916Z,12.82
2022-09-10T04:06:16.219Z,12.83
2022-09-10T04:08:44.119Z,12.72
2022-09-10T04:11:11.021Z,12.74
2022-09-10T04:13:37.663Z,12.70
2022-09-10T04:16:04.735Z,12.65
2022-09-10T04:18:34.203Z,12.61
2022-09-10T04:21:00.812Z,12.58
2022-09-10T04:23:27.476Z,12.59
2022-09-10T04:25:54.082Z,12.56
2022-09-10T04:28:20.634Z,12.58
2022-09-10T04:30:48.106Z,12.56
2022-09-10T04:33:14.764Z,12.53
2022-09-10T04:35:43.114Z,12.48
2022-09-10T04:38:10.041Z,12.46
2022-09-10T04:40:36.798Z,12.52
2022-09-10T04:43:04.394Z,12.42
2022-09-10T04:45:33.068Z,12.31
2022-09-10T04:48:03.602Z,12.33
2022-09-10T04:50:32.856Z,12.38
2022-09-10T04:52:59.510Z,12.48
2022-09-10T04:55:26.122Z,12.54
2022-09-10T04:57:53.031Z,12.48
2022-09-10T05:00:19.739Z,12.44
2022-09-10T05:02:46.684Z,12.38
2022-09-10T05:05:13.887Z,12.45
2022-09-10T05:07:40.504Z,12.49
2022-09-10T05:10:10.442Z,12.42
2022-09-10T05:12:38.530Z,12.50
2022-09-10T05:15:06.735Z,12.44
2022-09-10T05:17:34.193Z,12.51
2022-09-10T05:20:00.896Z,12.53
2022-09-10T05:22:35.017Z,12.53
2022-09-10T05:25:04.384Z,12.49
2022-09-10T05:27:30.943Z,12.51
2022-09-10T05:29:57.594Z,12.41
2022-09-10T05:32:24.702Z,12.31
2022-09-10T05:34:51.290Z,12.28
2022-09-10T05:37:18.786Z,12.35
2022-09-10T05:39:47.304Z,12.33
2022-09-10T05:42:14.495Z,12.32
2022-09-10T05:44:41.445Z,12.31
2022-09-10T05:47:08.814Z,12.42
2022-09-10T05:49:35.419Z,12.35
2022-09-10T05:52:02.192Z,12.33
2022-09-10T05:54:28.847Z,12.26
2022-09-10T05:56:55.396Z,12.32
2022-09-10T05:59:21.962Z,12.27
2022-09-10T06:01:51.362Z,12.28
2022-09-10T06:04:19.863Z,12.28
2022-09-10T06:06:47.791Z,12.28
2022-09-10T06:09:14.679Z,12.21
2022-09-10T06:11:41.837Z,12.15
2022-09-10T06:14:09.048Z,12.27
2022-09-10T06:16:35.679Z,12.13
2022-09-10T06:19:03.040Z,12.12
2022-09-10T06:21:32.814Z,12.18
2022-09-10T06:23:59.770Z,12.26
2022-09-10T06:26:26.640Z,12.21
2022-09-10T06:28:56.909Z,12.27
2022-09-10T06:31:23.526Z,12.27
2022-09-10T06:33:50.131Z,12.26
2022-09-10T06:36:16.722Z,12.34
2022-09-10T06:38:45.623Z,12.20
2022-09-10T06:41:14.294Z,12.29
2022-09-10T06:43:41.670Z,12.33
2022-09-10T06:46:40.831Z,12.31
2022-09-10T06:49:02.843Z,12.47
2022-09-10T06:51:29.940Z,12.66
2022-09-10T06:53:57.679Z,12.55
2022-09-10T06:56:24.471Z,12.60
2022-09-10T06:58:51.728Z,12.60
2022-09-10T07:01:21.590Z,12.67
2022-09-10T07:03:48.299Z,12.68
2022-09-10T07:06:17.206Z,12.78
2022-09-10T07:08:44.162Z,12.91
2022-09-10T07:11:12.939Z,12.88
2022-09-10T07:13:40.623Z,12.94
2022-09-10T07:16:07.767Z,12.93
2022-09-10T07:18:34.697Z,12.98
2022-09-10T07:21:11.156Z,13.06
2022-09-10T07:23:39.120Z,13.04
2022-09-10T07:26:08.285Z,13.10
2022-09-10T07:28:36.301Z,13.23
2022-09-10T07:31:13.673Z,13.33
2022-09-10T07:33:40.966Z,13.45
2022-09-10T07:36:08.446Z,13.39
2022-09-10T07:38:35.042Z,13.43
2022-09-10T07:41:02.083Z,13.49
2022-09-10T07:43:29.538Z,13.50
2022-09-10T07:45:59.055Z,13.54
2022-09-10T07:48:28.441Z,13.68
2022-09-10T07:51:02.425Z,13.73
2022-09-10T07:53:29.108Z,13.95
2022-09-10T07:56:05.771Z,14.12
2022-09-10T07:58:36.003Z,14.21
2022-09-10T08:01:09.193Z,14.30
2022-09-10T08:03:36.647Z,14.37
2022-09-10T08:06:04.428Z,14.43
2022-09-10T08:08:32.985Z,14.61
2022-09-10T08:11:17.524Z,14.70
2022-09-10T08:13:46.449Z,14.75
2022-09-10T08:16:16.133Z,14.97
2022-09-10T08:18:43.790Z,15.19
2022-09-10T08:21:11.090Z,15.13
2022-09-10T08:23:39.600Z,15.18
2022-09-10T08:26:08.176Z,15.38
2022-09-10T08:28:36.098Z,15.36
2022-09-10T08:31:07.778Z,15.42
2022-09-10T08:33:36.360Z,15.51
2022-09-10T08:36:04.792Z,15.50
2022-09-10T08:38:33.703Z,15.52
2022-09-10T08:41:02.515Z,15.57
2022-09-10T08:43:41.827Z,15.76
2022-09-10T08:46:21.229Z,15.76
2022-09-10T08:48:55.131Z,15.66
2022-09-10T08:51:30.053Z,15.74
2022-09-10T08:54:02.709Z,15.80
2022-09-10T08:56:30.257Z,15.90
2022-09-10T08:59:03.825Z,15.83
2022-09-10T09:01:50.136Z,15.94
2022-09-10T09:04:35.635Z,15.96
2022-09-10T09:07:11.598Z,16.05
2022-09-10T09:09:38.193Z,16.04
2022-09-10T09:12:22.059Z,16.11
2022-09-10T09:14:50.606Z,16.13
2022-09-10T09:17:44.761Z,16.19
2022-09-10T09:20:25.744Z,16.23
2022-09-10T09:22:55.738Z,16.23
2022-09-10T09:25:33.064Z,16.24
2022-09-10T09:28:00.569Z,16.27
2022-09-10T09:30:37.179Z,16.45
2022-09-10T09:33:13.990Z,16.40
2022-09-10T09:35:49.504Z,16.41
2022-09-10T09:38:24.838Z,16.36
2022-09-10T09:40:56.570Z,16.37
2022-09-10T09:43:58.929Z,16.36
2022-09-10T09:46:25.916Z,16.38
2022-09-10T09:48:57.871Z,16.29
2022-09-10T09:51:27.016Z,16.32
2022-09-10T09:54:25.780Z,16.39
2022-09-10T09:56:49.931Z,16.37
2022-09-10T09:59:34.729Z,16.29
2022-09-10T10:02:11.981Z,16.39
2022-09-10T10:04:42.439Z,16.45
2022-09-10T10:07:09.511Z,16.59
2022-09-10T10:09:43.106Z,16.61
2022-09-10T10:12:20.726Z,16.72
2022-09-10T10:14:47.351Z,16.90
2022-09-10T10:17:31.282Z,17.09
2022-09-10T10:20:13.380Z,17.24
2022-09-10T10:22:45.437Z,17.28
2022-09-10T10:25:43.168Z,17.06
2022-09-10T10:28:20.054Z,17.09
2022-09-10T10:30:55.347Z,16.97
2022-09-10T10:33:28.852Z,16.94
2022-09-10T10:36:15.437Z,16.96
2022-09-10T10:38:51.685Z,16.98
2022-09-10T10:41:41.213Z,16.93
2022-09-10T10:44:37.022Z,16.81
2022-09-10T10:47:16.911Z,16.70
2022-09-10T10:50:00.011Z,16.76
2022-09-10T10:52:40.669Z,16.89
2022-09-10T10:55:28.575Z,16.91
2022-09-10T10:58:10.321Z,17.05
2022-09-10T11:00:48.496Z,17.15
2022-09-10T11:03:29.410Z,17.36
2022-09-10T11:06:04.979Z,17.46
2022-09-10T11:08:40.500Z,17.40
2022-09-10T11:11:16.538Z,17.44
2022-09-10T11:13:51.538Z,17.38
2022-09-10T11:16:31.852Z,17.37
2022-09-10T11:19:09.435Z,17.44
2022-09-10T11:21:58.804Z,17.51
2022-09-10T11:24:34.155Z,17.51
2022-09-10T11:27:14.441Z,17.57
2022-09-10T11:29:48.409Z,17.67
2022-09-10T11:32:30.182Z,17.76
2022-09-10T11:35:32.891Z,17.78
2022-09-10T11:38:20.706Z,17.80
2022-09-10T11:40:52.177Z,17.74
2022-09-10T11:43:33.320Z,17.66
2022-09-10T11:46:08.111Z,17.57
2022-09-10T11:48:48.395Z,17.49
2022-09-10T11:51:24.249Z,17.68
2022-09-10T11:53:51.300Z,17.82
2022-09-10T11:56:33.269Z,18.06
2022-09-10T11:58:59.884Z,18.12
2022-09-10T12:01:58.379Z,18.29
2022-09-10T12:04:50.887Z,18.46
2022-09-10T12:07:39.022Z,18.46
2022-09-10T12:10:32.858Z,18.53
2022-09-10T12:12:59.762Z,18.54
2022-09-10T12:15:31.166Z,18.48
2022-09-10T12:18:04.195Z,18.41
2022-09-10T12:20:36.834Z,18.57
2022-09-10T12:23:05.014Z,18.55
2022-09-10T12:25:34.794Z,18.61
2022-09-10T12:28:08.080Z,18.64
2022-09-10T12:30:36.010Z,18.65
2022-09-10T12:33:24.727Z,18.39
2022-09-10T12:35:52.347Z,18.42
2022-09-10T12:38:49.907Z,18.34
2022-09-10T12:41:37.226Z,18.34
2022-09-10T12:44:43.624Z,18.21
2022-09-10T12:47:42.733Z,18.32
2022-09-10T12:50:22.044Z,18.29
2022-09-10T12:52:51.620Z,18.29
2022-09-10T12:55:42.791Z,18.28
2022-09-10T12:58:34.409Z,18.33
2022-09-10T13:01:17.432Z,18.41
2022-09-10T13:03:54.991Z,18.45
2022-09-10T13:06:35.229Z,18.32
2022-09-10T13:09:14.783Z,18.56
2022-09-10T13:11:46.241Z,18.55
2022-09-10T13:14:22.190Z,18.57
2022-09-10T13:16:51.229Z,18.55
2022-09-10T13:19:19.486Z,18.59
2022-09-10T13:21:48.063Z,18.62
2022-09-10T13:24:38.629Z,18.58
2022-09-10T13:27:22.650Z,18.67
2022-09-10T13:29:56.546Z,18.75
2022-09-10T13:32:29.537Z,18.65
2022-09-10T13:35:06.561Z,18.60
2022-09-10T13:38:00.427Z,18.56
2022-09-10T13:40:57.523Z,18.50
2022-09-10T13:43:23.997Z,18.17
2022-09-10T13:45:57.142Z,17.85
2022-09-10T13:49:00.151Z,17.61
2022-09-10T13:51:36.788Z,17.16
2022-09-10T13:54:25.031Z,16.93
2022-09-10T13:56:52.606Z,16.88
2022-09-10T13:59:28.831Z,16.53
2022-09-10T14:01:56.024Z,16.21
2022-09-10T14:04:26.240Z,15.94
2022-09-10T14:06:57.849Z,15.78
2022-09-10T14:09:26.144Z,15.51
2022-09-10T14:11:53.602Z,15.56
2022-09-10T14:14:25.688Z,15.27
2022-09-10T14:16:56.278Z,15.16
2022-09-10T14:19:27.330Z,15.08
2022-09-10T14:21:55.672Z,14.98
2022-09-10T14:24:48.666Z,14.92
2022-09-10T14:27:21.942Z,14.89
2022-09-10T14:29:50.371Z,14.91
2022-09-10T14:32:37.389Z,15.02
2022-09-10T14:35:39.250Z,14.95
2022-09-10T14:38:21.377Z,14.90
2022-09-10T14:40:48.195Z,14.86
2022-09-10T14:43:26.320Z,14.88
2022-09-10T14:45:53.772Z,14.89
2022-09-10T14:48:55.615Z,14.91
2022-09-10T14:51:22.866Z,14.88
2022-09-10T14:53:52.920Z,15.10
2022-09-10T14:56:37.492Z,15.04
2022-09-10T14:59:34.586Z,15.04
2022-09-10T15:02:05.742Z,15.13
2022-09-10T15:04:32.372Z,15.11
2022-09-10T15:07:00.801Z,15.00
2022-09-10T15:09:29.198Z,15.05
2022-09-10T15:12:12.067Z,15.05
2022-09-10T15:14:39.082Z,15.09
2022-09-10T15:17:05.691Z,15.05
2022-09-10T15:19:32.366Z,15.02
2022-09-10T15:21:59.698Z,15.02
2022-09-10T15:24:26.415Z,15.04
2022-09-10T15:26:53.038Z,15.02
2022-09-10T15:29:19.703Z,15.13
2022-09-10T15:31:47.328Z,15.11
2022-09-10T15:34:14.426Z,15.10
2022-09-10T15:36:41.811Z,15.06
2022-09-10T15:39:12.208Z,15.06
2022-09-10T15:41:44.287Z,15.17
2022-09-10T15:44:11.752Z,15.11
2022-09-10T15:46:45.239Z,15.02
2022-09-10T15:49:12.230Z,14.99
2022-09-10T15:51:39.294Z,14.98
2022-09-10T15:54:06.269Z,15.01
2022-09-10T15:56:33.342Z,15.02
2022-09-10T15:59:00.915Z,15.00
2022-09-10T16:01:29.104Z,15.00
2022-09-10T16:03:58.213Z,14.98
2022-09-10T16:06:27.906Z,14.99
2022-09-10T16:08:57.441Z,15.02
2022-09-10T16:11:25.229Z,15.09
2022-09-10T16:13:52.320Z,15.18
2022-09-10T16:16:20.850Z,15.16
2022-09-10T16:18:48.164Z,15.13
2022-09-10T16:21:18.607Z,15.12
2022-09-10T16:23:47.218Z,15.26
2022-09-10T16:26:17.770Z,15.13
2022-09-10T16:29:00.486Z,14.98
2022-09-10T16:31:31.484Z,14.96
2022-09-10T16:34:00.082Z,14.93
2022-09-10T16:36:27.397Z,14.88
2022-09-10T16:38:55.902Z,14.85
2022-09-10T16:41:24.314Z,14.83
2022-09-10T16:43:51.785Z,14.77
2022-09-10T16:46:18.610Z,14.78
2022-09-10T16:48:45.846Z,14.72
2022-09-10T16:51:14.755Z,14.71
2022-09-10T16:53:44.352Z,14.72
2022-09-10T16:56:13.462Z,14.72
2022-09-10T16:58:41.456Z,14.71
2022-09-10T17:01:09.522Z,14.69
2022-09-10T17:03:40.954Z,14.69
2022-09-10T17:06:14.822Z,14.69
2022-09-10T17:08:41.603Z,14.64
2022-09-10T17:11:09.383Z,14.68
2022-09-10T17:13:36.137Z,14.65
2022-09-10T17:16:23.944Z,14.64
2022-09-10T17:18:57.437Z,14.64
2022-09-10T17:21:25.905Z,14.63
2022-09-10T17:23:53.801Z,14.68
2022-09-10T17:26:20.451Z,14.62
2022-09-10T17:28:57.928Z,14.62
2022-09-10T17:31:25.736Z,14.55
2022-09-10T17:33:52.298Z,14.53
2022-09-10T17:36:19.761Z,14.56
2022-09-10T17:38:47.360Z,14.54
2022-09-10T17:41:14.631Z,14.53
2022-09-10T17:43:43.276Z,14.50
2022-09-10T17:46:14.929Z,14.48
2022-09-10T17:48:45.655Z,14.45
2022-09-10T17:51:15.659Z,14.40
2022-09-10T17:53:43.444Z,14.38
2022-09-10T17:56:12.439Z,14.34
2022-09-10T17:58:39.251Z,14.34
2022-09-10T18:01:10.565Z,14.48
2022-09-10T18:03:37.637Z,14.42
2022-09-10T18:06:06.476Z,14.29
2022-09-10T18:08:33.615Z,14.22
2022-09-10T18:11:05.768Z,14.16
2022-09-10T18:13:35.067Z,14.21
2022-09-10T18:16:12.075Z,14.15
2022-09-10T18:18:39.371Z,14.12
2022-09-10T18:21:15.678Z,14.09
2022-09-10T18:23:44.428Z,14.07
2022-09-10T18:26:16.116Z,14.06
2022-09-10T18:28:44.126Z,14.11
2022-09-10T18:31:11.365Z,14.07
2022-09-10T18:33:43.450Z,14.01
2022-09-10T18:36:13.163Z,13.99
2022-09-10T18:38:40.300Z,13.98
2022-09-10T18:41:18.854Z,13.99
2022-09-10T18:43:46.623Z,13.92
2022-09-10T18:46:13.596Z,13.91
2022-09-10T18:48:40.759Z,13.90
2022-09-10T18:51:10.726Z,13.90
2022-09-10T18:53:40.358Z,13.86
2022-09-10T18:56:09.960Z,13.84
2022-09-10T18:58:37.406Z,13.89
2022-09-10T19:01:07.044Z,13.89
2022-09-10T19:03:36.309Z,13.89
2022-09-10T19:06:05.974Z,13.91
2022-09-10T19:08:34.042Z,13.93
2022-09-10T19:11:02.161Z,13.90
2022-09-10T19:13:29.888Z,13.88
2022-09-10T19:15:59.459Z,13.83
2022-09-10T19:18:29.112Z,13.81
2022-09-10T19:20:56.477Z,13.78
2022-09-10T19:23:23.946Z,13.81
2022-09-10T19:25:56.128Z,13.76
2022-09-10T19:28:23.778Z,13.80
2022-09-10T19:30:52.092Z,13.62
2022-09-10T19:33:18.754Z,13.56
2022-09-10T19:35:45.897Z,13.64
2022-09-10T19:38:34.281Z,13.56
2022-09-10T19:41:10.849Z,13.66
2022-09-10T19:43:37.684Z,13.71
2022-09-10T19:46:05.905Z,13.64
2022-09-10T19:48:33.552Z,13.61
2022-09-10T19:51:02.236Z,13.55
2022-09-10T19:53:31.479Z,13.62
2022-09-10T19:56:19.759Z,13.65
2022-09-10T19:58:51.539Z,13.67
2022-09-10T20:01:19.983Z,13.65
2022-09-10T20:03:48.213Z,13.68
2022-09-10T20:06:18.390Z,13.72
2022-09-10T20:08:47.205Z,13.74
2022-09-10T20:11:32.929Z,13.76
2022-09-10T20:14:02.334Z,13.75
2022-09-10T20:16:29.960Z,13.68
2022-09-10T20:18:57.122Z,13.64
2022-09-10T20:21:26.935Z,13.68
2022-09-10T20:23:56.394Z,13.71
2022-09-10T20:26:27.161Z,13.71
2022-09-10T20:28:57.974Z,13.58
2022-09-10T20:31:27.120Z,13.49
2022-09-10T20:33:56.383Z,13.47
2022-09-10T20:36:24.054Z,13.40
2022-09-10T20:38:51.840Z,13.33
2022-09-10T20:41:18.666Z,13.44
2022-09-10T20:43:51.727Z,13.45
2022-09-10T20:46:20.484Z,13.48
2022-09-10T20:48:49.269Z,13.53
2022-09-10T20:51:17.986Z,13.54
2022-09-10T20:53:45.014Z,13.56
2022-09-10T20:56:14.155Z,13.55
2022-09-10T20:58:41.493Z,13.54
2022-09-10T21:01:09.364Z,13.54
2022-09-10T21:03:36.961Z,13.51
2022-09-10T21:06:04.395Z,13.51
2022-09-10T21:08:32.059Z,13.52
2022-09-10T21:11:04.997Z,13.45
2022-09-10T21:13:34.187Z,13.47
2022-09-10T21:16:08.882Z,13.48
2022-09-10T21:18:41.790Z,13.51
2022-09-10T21:21:11.831Z,13.52
2022-09-10T21:23:47.623Z,13.48
2022-09-10T21:26:18.163Z,13.50
2022-09-10T21:28:45.035Z,13.41
2022-09-10T21:31:12.995Z,13.34
2022-09-10T21:33:41.939Z,13.29
2022-09-10T21:36:11.719Z,13.33
2022-09-10T21:38:39.346Z,13.39
2022-09-10T21:41:08.442Z,13.40
2022-09-10T21:43:35.570Z,13.35
2022-09-10T21:46:04.417Z,13.35
2022-09-10T21:48:35.843Z,13.31
2022-09-10T21:51:06.010Z,13.33
2022-09-10T21:53:34.147Z,13.29
2022-09-10T21:56:02.867Z,13.24
2022-09-10T21:58:33.209Z,13.27
2022-09-10T22:00:59.921Z,13.32
2022-09-10T22:03:29.520Z,13.37
2022-09-10T22:06:05.442Z,13.41
2022-09-10T22:08:33.458Z,13.39
2022-09-10T22:11:09.873Z,13.39
2022-09-10T22:13:37.964Z,13.40
2022-09-10T22:16:06.100Z,13.34
2022-09-10T22:18:34.199Z,13.30
2022-09-10T22:21:01.091Z,13.30
2022-09-10T22:23:30.351Z,13.40
2022-09-10T22:26:03.321Z,13.45
2022-09-10T22:28:35.085Z,13.46
2022-09-10T22:31:13.015Z,13.46
2022-09-10T22:33:41.830Z,13.47
2022-09-10T22:36:30.848Z,13.48
2022-09-10T22:39:00.085Z,13.51
2022-09-10T22:41:28.341Z,13.60
2022-09-10T22:43:55.296Z,13.61
2022-09-10T22:46:24.140Z,13.66
2022-09-10T22:48:51.053Z,13.64
2022-09-10T22:51:20.391Z,13.62
2022-09-10T22:53:48.105Z,13.62
2022-09-10T22:56:17.078Z,13.60
2022-09-10T22:58:44.993Z,13.65
2022-09-10T23:01:14.124Z,13.71
2022-09-10T23:03:41.659Z,13.63
2022-09-10T23:06:08.419Z,13.61
2022-09-10T23:08:36.814Z,13.57
2022-09-10T23:11:15.303Z,13.54
2022-09-10T23:13:43.848Z,13.50
2022-09-10T23:16:12.943Z,13.52
2022-09-10T23:18:41.326Z,13.53
2022-09-10T23:21:09.062Z,13.54
2022-09-10T23:23:36.287Z,13.55
2022-09-10T23:26:07.062Z,13.56
2022-09-10T23:28:33.778Z,13.62
2022-09-10T23:31:10.472Z,13.61
2022-09-10T23:33:37.109Z,13.68
2022-09-10T23:36:04.270Z,13.65
2022-09-10T23:38:31.498Z,13.57
2022-09-10T23:41:00.243Z,13.57
2022-09-10T23:43:29.902Z,13.55
2022-09-10T23:45:56.597Z,13.59
2022-09-10T23:48:24.518Z,13.55
2022-09-10T23:50:52.279Z,13.50
2022-09-10T23:53:19.340Z,13.52
2022-09-10T23:55:46.204Z,13.46
2022-09-10T23:58:12.854Z,13.37
